Main page
METAR-TAF:

METAR-TAF

Airports :

Léopold Sédar Senghor International Airport

Dakar, Senegal

latitude: 14-44N, longitude: 017-30W, elevation: 27 m

Current weather observation

The report was made 50 minutes ago, at 22:00 UTC
Wind 6 kt from the North
Temperature 23°C
Humidity 83%
Pressure 1014 hPa
Visibility: 8000 m

METAR: GOOY 202200Z 36006KT 8000 NSC 23/20 Q1014

Time: 22:50 (22:50 UTC)

Forecast

The report was made 5 hours and 20 minutes ago, at 17:30 UTC
Forecast valid from 20 at 18 UTC to 21 at 24 UTC
Wind 14 kt from the North/Northeast
Visibility 10 km or more
no clouds below 1500 m and no cumulonimbus

TAF: GOOY 201730Z 2018/2124 03014KT CAVOK

Weather observations and forecasts of more than 4000 airports (METAR and TAF reports).

The available stations are represented by yellow and red dots on the map.

Hover mouse over dot to see the name of the station.

Then click to see weather observations and forecasts.

To change the map : click on the green buttons with a black cross to zoom in, on the green button with a dash to zoom out, or on the green arrows for adjacent maps.


METAR-TAF: